createdAt,value
2022-12-09T00:01:08.153Z,0.60
2022-12-09T00:03:43.676Z,0.60
2022-12-09T00:06:19.189Z,0.70
2022-12-09T00:08:53.613Z,0.70
2022-12-09T00:11:27.806Z,0.70
2022-12-09T00:14:01.515Z,0.70
2022-12-09T00:16:34.844Z,0.70
2022-12-09T00:19:09.440Z,0.70
2022-12-09T00:21:43.536Z,0.70
2022-12-09T00:24:17.090Z,0.70
2022-12-09T00:26:50.464Z,0.70
2022-12-09T00:29:23.666Z,0.70
2022-12-09T00:31:56.970Z,0.70
2022-12-09T00:34:32.125Z,0.70
2022-12-09T00:37:05.471Z,0.70
2022-12-09T00:39:39.102Z,0.60
2022-12-09T00:42:12.475Z,0.60
2022-12-09T00:44:45.825Z,0.60
2022-12-09T00:47:19.173Z,0.60
2022-12-09T00:49:54.072Z,0.60
2022-12-09T00:52:27.498Z,0.60
2022-12-09T00:55:00.960Z,0.60
2022-12-09T00:57:34.793Z,0.50
2022-12-09T01:00:10.071Z,0.50
2022-12-09T01:02:43.738Z,0.40
2022-12-09T01:05:18.609Z,0.40
2022-12-09T01:07:52.763Z,0.30
2022-12-09T01:10:26.922Z,0.40
2022-12-09T01:13:00.249Z,0.30
2022-12-09T01:15:34.250Z,0.30
2022-12-09T01:18:08.421Z,0.30
2022-12-09T01:20:43.334Z,0.30
2022-12-09T01:23:17.943Z,0.30
2022-12-09T01:25:51.692Z,0.20
2022-12-09T01:28:24.865Z,0.20
2022-12-09T01:30:58.387Z,0.20
2022-12-09T01:33:31.586Z,0.10
2022-12-09T01:36:09.272Z,0.00
2022-12-09T01:38:42.641Z,0.00
2022-12-09T01:41:17.174Z,0.00
2022-12-09T01:44:09.306Z,0.00
2022-12-09T01:46:42.880Z,-0.10
2022-12-09T01:49:21.594Z,-0.10
2022-12-09T01:52:05.951Z,-0.10
2022-12-09T01:54:41.101Z,-0.10
2022-12-09T01:57:14.599Z,-0.20
2022-12-09T01:59:48.501Z,-0.20
2022-12-09T02:02:23.688Z,-0.10
2022-12-09T02:04:58.588Z,-0.10
2022-12-09T02:07:35.532Z,-0.10
2022-12-09T02:10:13.716Z,-0.10
2022-12-09T02:13:05.830Z,-0.10
2022-12-09T02:15:44.718Z,-0.10
2022-12-09T02:18:25.764Z,-0.10
2022-12-09T02:21:02.782Z,0.00
2022-12-09T02:23:41.598Z,0.00
2022-12-09T02:26:24.706Z,0.00
2022-12-09T02:29:23.055Z,0.10
2022-12-09T02:32:34.632Z,0.10
2022-12-09T02:35:14.296Z,0.10
2022-12-09T02:37:54.777Z,0.10
2022-12-09T02:40:32.516Z,0.10
2022-12-09T02:43:09.385Z,0.20
2022-12-09T02:45:46.074Z,0.20
2022-12-09T02:48:24.644Z,0.20
2022-12-09T02:51:01.711Z,0.20
2022-12-09T02:53:37.024Z,0.20
2022-12-09T02:56:12.373Z,0.20
2022-12-09T02:58:47.042Z,0.20
2022-12-09T03:01:33.764Z,0.20
2022-12-09T03:04:09.095Z,0.20
2022-12-09T03:06:49.211Z,0.20
2022-12-09T03:09:25.810Z,0.20
2022-12-09T03:12:03.884Z,0.20
2022-12-09T03:14:41.393Z,0.20
2022-12-09T03:17:20.743Z,0.20
2022-12-09T03:19:57.250Z,0.20
2022-12-09T03:22:36.219Z,0.30
2022-12-09T03:25:16.062Z,0.20
2022-12-09T03:27:53.554Z,0.20
2022-12-09T03:30:27.399Z,0.20
2022-12-09T03:33:02.125Z,0.20
2022-12-09T03:35:39.224Z,0.20
2022-12-09T03:38:18.449Z,0.20
2022-12-09T03:40:58.122Z,0.10
2022-12-09T03:43:36.550Z,0.10
2022-12-09T03:46:10.341Z,0.00
2022-12-09T03:48:44.272Z,0.00
2022-12-09T03:51:23.189Z,-0.10
2022-12-09T03:54:02.642Z,-0.10
2022-12-09T03:56:41.749Z,-0.30
2022-12-09T03:59:16.311Z,-0.40
2022-12-09T04:01:50.666Z,-0.50
2022-12-09T04:04:24.359Z,-0.60
2022-12-09T04:06:58.712Z,-0.60
2022-12-09T04:09:33.629Z,-0.70
2022-12-09T04:12:08.240Z,-0.70
2022-12-09T04:14:41.943Z,-0.80
2022-12-09T04:17:15.766Z,-0.90
2022-12-09T04:19:49.890Z,-0.90
2022-12-09T04:22:23.543Z,-1.00
2022-12-09T04:24:58.384Z,-1.10
2022-12-09T04:27:32.109Z,-1.10
2022-12-09T04:30:07.320Z,-1.20
2022-12-09T04:32:41.555Z,-1.20
2022-12-09T04:35:15.062Z,-1.30
2022-12-09T04:37:48.572Z,-1.30
2022-12-09T04:40:24.648Z,-1.40
2022-12-09T04:42:59.823Z,-1.50
2022-12-09T04:45:33.248Z,-1.50
2022-12-09T04:48:07.535Z,-1.50
2022-12-09T04:50:41.888Z,-1.50
2022-12-09T04:53:15.803Z,-1.60
2022-12-09T04:55:50.636Z,-1.60
2022-12-09T04:58:24.743Z,-1.60
2022-12-09T05:00:59.003Z,-1.60
2022-12-09T05:03:32.981Z,-1.60
2022-12-09T05:06:08.177Z,-1.60
2022-12-09T05:08:43.316Z,-1.70
2022-12-09T05:11:19.699Z,-1.70
2022-12-09T05:13:54.654Z,-1.70
2022-12-09T05:16:28.750Z,-1.70
2022-12-09T05:19:02.560Z,-1.70
2022-12-09T05:21:36.320Z,-1.70
2022-12-09T05:24:10.019Z,-1.70
2022-12-09T05:26:45.132Z,-1.70
2022-12-09T05:29:22.731Z,-1.70
2022-12-09T05:31:57.353Z,-1.60
2022-12-09T05:34:31.281Z,-1.60
2022-12-09T05:37:05.392Z,-1.60
2022-12-09T05:39:39.185Z,-1.60
2022-12-09T05:42:14.386Z,-1.60
2022-12-09T05:44:48.249Z,-1.50
2022-12-09T05:47:22.025Z,-1.50
2022-12-09T05:49:55.666Z,-1.50
2022-12-09T05:52:29.154Z,-1.50
2022-12-09T05:55:06.049Z,-1.50
2022-12-09T05:57:41.017Z,-1.40
2022-12-09T06:00:16.033Z,-1.40
2022-12-09T06:02:50.313Z,-1.40
2022-12-09T06:05:24.553Z,-1.40
2022-12-09T06:08:02.354Z,-1.40
2022-12-09T06:10:40.788Z,-1.30
2022-12-09T06:13:16.470Z,-1.30
2022-12-09T06:15:50.051Z,-1.30
2022-12-09T06:18:24.544Z,-1.30
2022-12-09T06:20:59.038Z,-1.30
2022-12-09T06:23:32.779Z,-1.20
2022-12-09T06:26:06.962Z,-1.20
2022-12-09T06:28:42.307Z,-1.20
2022-12-09T06:31:16.547Z,-1.20
2022-12-09T06:33:56.063Z,-1.20
2022-12-09T06:36:32.265Z,-1.10
2022-12-09T06:39:10.598Z,-1.10
2022-12-09T06:41:45.055Z,-1.10
2022-12-09T06:44:23.748Z,-1.10
2022-12-09T06:46:58.339Z,-1.00
2022-12-09T06:49:32.277Z,-1.00
2022-12-09T06:52:06.336Z,-1.00
2022-12-09T06:54:40.167Z,-0.90
2022-12-09T06:57:13.837Z,-0.90
2022-12-09T06:59:48.956Z,-0.90
2022-12-09T07:02:22.820Z,-0.80
2022-12-09T07:04:57.711Z,-0.80
2022-12-09T07:07:31.896Z,-0.80
2022-12-09T07:10:06.771Z,-0.70
2022-12-09T07:12:40.720Z,-0.70
2022-12-09T07:15:16.440Z,-0.70
2022-12-09T07:17:50.488Z,-0.70
2022-12-09T07:20:24.559Z,-0.70
2022-12-09T07:22:58.184Z,-0.60
2022-12-09T07:25:31.941Z,-0.60
2022-12-09T07:28:06.115Z,-0.50
2022-12-09T07:30:41.440Z,-0.50
2022-12-09T07:33:15.407Z,-0.50
2022-12-09T07:35:49.007Z,-0.40
2022-12-09T07:38:22.505Z,-0.40
2022-12-09T07:40:56.055Z,-0.40
2022-12-09T07:43:29.596Z,-0.40
2022-12-09T07:46:09.157Z,-0.30
2022-12-09T07:48:43.459Z,-0.30
2022-12-09T07:51:17.201Z,-0.30
2022-12-09T07:53:51.717Z,-0.30
2022-12-09T07:56:26.166Z,-0.20
2022-12-09T07:59:00.155Z,-0.20
2022-12-09T08:01:35.669Z,-0.10
2022-12-09T08:04:10.036Z,-0.10
2022-12-09T08:06:44.015Z,-0.10
2022-12-09T08:09:18.500Z,0.00
2022-12-09T08:11:52.434Z,0.00
2022-12-09T08:14:25.981Z,0.00
2022-12-09T08:17:01.230Z,0.00
2022-12-09T08:19:35.441Z,0.10
2022-12-09T08:22:09.393Z,0.20
2022-12-09T08:24:43.571Z,0.20
2022-12-09T08:27:17.117Z,0.30
2022-12-09T08:29:51.492Z,0.30
2022-12-09T08:32:26.577Z,0.40
2022-12-09T08:35:00.789Z,0.40
2022-12-09T08:37:34.562Z,0.40
2022-12-09T08:40:09.680Z,0.50
2022-12-09T08:42:43.999Z,0.50
2022-12-09T08:45:17.580Z,0.50
2022-12-09T08:47:53.242Z,0.60
2022-12-09T08:50:27.345Z,0.60
2022-12-09T08:53:01.701Z,0.70
2022-12-09T08:55:39.508Z,0.70
2022-12-09T08:58:13.499Z,0.70
2022-12-09T09:00:47.523Z,0.70
2022-12-09T09:03:22.704Z,0.80
2022-12-09T09:06:08.912Z,0.80
2022-12-09T09:08:44.219Z,0.90
2022-12-09T09:11:20.000Z,0.90
2022-12-09T09:13:54.584Z,0.90
2022-12-09T09:16:29.049Z,1.00
2022-12-09T09:19:06.084Z,1.00
2022-12-09T09:21:40.289Z,1.10
2022-12-09T09:24:17.423Z,1.10
2022-12-09T09:26:52.510Z,1.20
2022-12-09T09:29:26.312Z,1.20
2022-12-09T09:32:00.358Z,1.30
2022-12-09T09:34:35.428Z,1.30
2022-12-09T09:37:08.871Z,1.40
2022-12-09T09:39:42.669Z,1.40
2022-12-09T09:42:20.339Z,1.50
2022-12-09T09:44:55.734Z,1.50
2022-12-09T09:47:38.242Z,1.60
2022-12-09T09:50:27.520Z,1.70
2022-12-09T09:53:11.634Z,1.70
2022-12-09T09:55:49.827Z,1.80
2022-12-09T09:58:27.093Z,1.90
2022-12-09T10:01:06.697Z,1.90
2022-12-09T10:04:00.268Z,2.00
2022-12-09T10:06:45.611Z,2.00
2022-12-09T10:09:24.041Z,2.00
2022-12-09T10:12:02.622Z,2.00
2022-12-09T10:14:46.030Z,2.10
2022-12-09T10:17:28.120Z,2.10
2022-12-09T10:20:07.690Z,2.20
2022-12-09T10:22:49.761Z,2.20
2022-12-09T10:25:26.574Z,2.20
2022-12-09T10:28:18.847Z,2.30
2022-12-09T10:30:54.474Z,2.30
2022-12-09T10:33:30.747Z,2.30
2022-12-09T10:36:05.742Z,2.30
2022-12-09T10:38:42.630Z,2.30
2022-12-09T10:41:39.678Z,2.40
2022-12-09T10:44:21.157Z,2.40
2022-12-09T10:46:59.900Z,2.50
2022-12-09T10:49:35.882Z,2.50
2022-12-09T10:52:10.040Z,2.60
2022-12-09T10:54:46.990Z,2.70
2022-12-09T10:57:26.719Z,2.70
2022-12-09T11:00:03.944Z,2.70
2022-12-09T11:02:38.230Z,2.80
2022-12-09T11:05:27.753Z,2.90
2022-12-09T11:08:01.749Z,2.90
2022-12-09T11:10:38.305Z,3.00
2022-12-09T11:13:18.202Z,3.00
2022-12-09T11:15:54.474Z,3.00
2022-12-09T11:18:31.199Z,3.00
2022-12-09T11:21:08.156Z,3.10
2022-12-09T11:24:00.790Z,3.20
2022-12-09T11:26:39.522Z,3.20
2022-12-09T11:29:16.468Z,3.30
2022-12-09T11:31:49.982Z,3.30
2022-12-09T11:34:27.409Z,3.40
2022-12-09T11:37:02.747Z,3.40
2022-12-09T11:39:37.476Z,3.50
2022-12-09T11:42:19.414Z,3.50
2022-12-09T11:44:57.739Z,3.60
2022-12-09T11:47:57.420Z,3.60
2022-12-09T11:50:31.636Z,3.60
2022-12-09T11:53:18.382Z,3.70
2022-12-09T11:55:55.273Z,3.80
2022-12-09T11:58:37.476Z,3.80
2022-12-09T12:01:14.335Z,3.80
2022-12-09T12:03:56.824Z,3.80
2022-12-09T12:06:36.465Z,3.90
2022-12-09T12:09:16.620Z,3.90
2022-12-09T12:12:00.709Z,3.90
2022-12-09T12:14:39.140Z,4.00
2022-12-09T12:17:19.843Z,4.00
2022-12-09T12:19:56.362Z,3.90
2022-12-09T12:23:04.950Z,3.90
2022-12-09T12:25:50.376Z,4.00
2022-12-09T12:28:46.077Z,4.00
2022-12-09T13:45:23.156Z,2.50
2022-12-09T13:47:57.931Z,2.40
2022-12-09T13:50:38.561Z,2.50
2022-12-09T13:53:27.006Z,2.50
2022-12-09T13:56:02.621Z,2.70
2022-12-09T13:59:01.925Z,2.70
2022-12-09T14:01:43.232Z,2.90
2022-12-09T14:04:20.277Z,2.90
2022-12-09T14:06:59.081Z,3.00
2022-12-09T14:09:38.229Z,3.10
2022-12-09T14:12:13.453Z,3.10
2022-12-09T14:14:51.797Z,3.20
2022-12-09T14:18:01.027Z,3.20
2022-12-09T14:20:38.099Z,3.40
2022-12-09T14:23:17.896Z,3.40
2022-12-09T14:26:05.895Z,3.40
2022-12-09T14:28:58.816Z,3.50
2022-12-09T14:31:46.074Z,3.50
2022-12-09T14:34:34.757Z,3.40
2022-12-09T14:37:32.483Z,3.50
2022-12-09T14:40:39.629Z,3.50
2022-12-09T14:43:39.351Z,3.50
2022-12-09T14:46:30.067Z,3.40
2022-12-09T14:49:05.882Z,3.40
2022-12-09T14:51:45.784Z,3.40
2022-12-09T14:54:36.163Z,3.30
2022-12-09T14:57:21.514Z,3.20
2022-12-09T14:59:56.884Z,3.10
2022-12-09T15:02:32.442Z,3.10
2022-12-09T15:05:18.134Z,3.00
2022-12-09T15:07:53.130Z,3.00
2022-12-09T15:10:34.295Z,3.00
2022-12-09T15:13:10.195Z,2.90
2022-12-09T15:15:43.837Z,3.00
2022-12-09T15:18:21.070Z,2.90
2022-12-09T15:20:56.432Z,3.00
2022-12-09T15:23:34.595Z,2.90
2022-12-09T15:26:19.465Z,2.90
2022-12-09T15:28:55.392Z,2.80
2022-12-09T15:31:30.686Z,2.80
2022-12-09T15:34:21.686Z,2.80
2022-12-09T15:37:01.963Z,2.70
2022-12-09T15:39:41.696Z,2.70
2022-12-09T15:42:22.028Z,2.70
2022-12-09T15:45:02.648Z,2.70
2022-12-09T15:47:39.976Z,2.70
2022-12-09T15:50:18.703Z,2.70
2022-12-09T15:52:53.716Z,2.60
2022-12-09T15:55:32.352Z,2.60
2022-12-09T15:58:09.160Z,2.60
2022-12-09T16:00:47.196Z,2.60
2022-12-09T16:03:23.518Z,2.60
2022-12-09T16:05:59.475Z,2.60
2022-12-09T16:08:35.102Z,2.50
2022-12-09T16:11:10.636Z,2.50
2022-12-09T16:13:59.185Z,2.50
2022-12-09T16:16:41.844Z,2.50
2022-12-09T16:19:45.441Z,2.50
2022-12-09T16:22:23.018Z,2.50
2022-12-09T16:25:14.528Z,2.40
2022-12-09T16:27:56.674Z,2.50
2022-12-09T16:30:34.546Z,2.50
2022-12-09T16:33:18.268Z,2.50
2022-12-09T16:35:59.689Z,2.50
2022-12-09T16:38:34.833Z,2.40
2022-12-09T16:41:11.629Z,2.40
2022-12-09T16:43:58.131Z,2.40
2022-12-09T16:46:41.147Z,2.40
2022-12-09T16:49:14.632Z,2.40
2022-12-09T16:51:48.009Z,2.40
2022-12-09T16:54:21.430Z,2.40
2022-12-09T16:56:57.647Z,2.40
2022-12-09T16:59:37.837Z,2.30
2022-12-09T17:02:22.215Z,2.30
2022-12-09T17:04:55.706Z,2.40
2022-12-09T17:07:28.993Z,2.30
2022-12-09T17:10:04.640Z,2.30
2022-12-09T17:12:38.057Z,2.30
2022-12-09T17:15:15.499Z,2.30
2022-12-09T17:17:49.508Z,2.30
2022-12-09T17:20:22.867Z,2.30
2022-12-09T17:22:56.213Z,2.30
2022-12-09T17:25:32.984Z,2.30
2022-12-09T17:28:08.730Z,2.30
2022-12-09T17:30:43.378Z,2.30
2022-12-09T17:33:16.681Z,2.40
2022-12-09T17:35:49.929Z,2.40
2022-12-09T17:38:23.774Z,2.40
2022-12-09T17:40:57.187Z,2.40
2022-12-09T17:43:30.487Z,2.30
2022-12-09T17:46:06.767Z,2.30
2022-12-09T17:48:41.790Z,2.30
2022-12-09T17:51:17.947Z,2.30
2022-12-09T17:53:51.358Z,2.30
2022-12-09T17:56:25.495Z,2.40
2022-12-09T17:59:02.864Z,2.40
2022-12-09T18:01:40.473Z,2.30
2022-12-09T18:04:15.439Z,2.30
2022-12-09T18:06:48.774Z,2.30
2022-12-09T18:09:22.734Z,2.30
2022-12-09T18:11:56.191Z,2.30
2022-12-09T18:14:29.686Z,2.30
2022-12-09T18:17:04.534Z,2.30
2022-12-09T18:19:38.018Z,2.30
2022-12-09T18:22:11.381Z,2.30
2022-12-09T18:24:44.659Z,2.20
2022-12-09T18:27:18.024Z,2.20
2022-12-09T18:29:51.400Z,2.20
2022-12-09T18:32:28.220Z,2.20
2022-12-09T18:35:05.051Z,2.10
2022-12-09T18:37:38.423Z,2.20
2022-12-09T18:40:13.628Z,2.20
2022-12-09T18:42:46.951Z,2.20
2022-12-09T18:45:20.888Z,2.20
2022-12-09T18:47:55.628Z,2.30
2022-12-09T18:50:29.198Z,2.20
2022-12-09T18:53:02.517Z,2.20
2022-12-09T18:55:42.048Z,2.20
2022-12-09T18:58:15.825Z,2.20
2022-12-09T19:00:49.239Z,2.20
2022-12-09T19:03:24.022Z,2.20
2022-12-09T19:05:57.344Z,2.20
2022-12-09T19:08:30.658Z,2.20
2022-12-09T19:11:03.976Z,2.20
2022-12-09T19:13:37.973Z,2.20
2022-12-09T19:16:11.403Z,2.20
2022-12-09T19:18:46.807Z,2.20
2022-12-09T19:21:22.017Z,2.20
2022-12-09T19:23:56.025Z,2.20
2022-12-09T19:26:32.371Z,2.30
2022-12-09T19:29:08.227Z,2.20
2022-12-09T19:31:43.598Z,2.20
2022-12-09T19:34:22.019Z,2.20
2022-12-09T19:36:57.293Z,2.10
2022-12-09T19:39:34.176Z,2.20
2022-12-09T19:42:07.643Z,2.20
2022-12-09T19:45:00.916Z,2.20
2022-12-09T19:47:34.756Z,2.20
2022-12-09T19:50:10.629Z,2.10
2022-12-09T19:52:44.264Z,2.10
2022-12-09T19:55:18.154Z,2.20
2022-12-09T19:57:51.651Z,2.10
2022-12-09T20:00:25.036Z,2.20
2022-12-09T20:02:59.977Z,2.20
2022-12-09T20:05:35.052Z,2.20
2022-12-09T20:08:08.449Z,2.20
2022-12-09T20:10:45.018Z,2.20
2022-12-09T20:13:18.763Z,2.10
2022-12-09T20:15:52.297Z,2.20
2022-12-09T20:18:25.737Z,2.20
2022-12-09T20:21:03.890Z,2.20
2022-12-09T20:23:38.720Z,2.20
2022-12-09T20:26:13.915Z,2.20
2022-12-09T20:28:49.541Z,2.20
2022-12-09T20:31:25.011Z,2.20
2022-12-09T20:34:00.333Z,2.20
2022-12-09T20:36:37.431Z,2.20
2022-12-09T20:39:15.269Z,2.20
2022-12-09T20:41:49.383Z,2.20
2022-12-09T20:44:24.281Z,2.20
2022-12-09T20:46:57.815Z,2.20
2022-12-09T20:49:31.332Z,2.10
2022-12-09T20:52:06.582Z,2.10
2022-12-09T20:54:40.073Z,2.10
2022-12-09T20:57:13.524Z,2.10
2022-12-09T20:59:46.997Z,2.10
2022-12-09T21:02:20.723Z,2.10
2022-12-09T21:04:54.220Z,2.10
2022-12-09T21:07:28.936Z,2.10
2022-12-09T21:10:02.354Z,2.10
2022-12-09T21:12:35.966Z,2.10
2022-12-09T21:15:11.041Z,2.20
2022-12-09T21:17:46.706Z,2.20
2022-12-09T21:20:20.137Z,2.20
2022-12-09T21:23:10.794Z,2.20
2022-12-09T21:25:48.573Z,2.20
2022-12-09T21:28:22.255Z,2.20
2022-12-09T21:30:55.716Z,2.20
2022-12-09T21:33:29.024Z,2.20
2022-12-09T21:36:02.782Z,2.20
2022-12-09T21:38:38.699Z,2.20
2022-12-09T21:41:16.265Z,2.10
2022-12-09T21:43:49.952Z,2.20
2022-12-09T21:46:25.937Z,2.10
2022-12-09T21:49:03.885Z,2.20
2022-12-09T21:51:37.840Z,2.10
2022-12-09T21:54:12.820Z,2.10
2022-12-09T21:56:46.226Z,2.10
2022-12-09T21:59:19.639Z,2.10
2022-12-09T22:01:53.019Z,2.10
2022-12-09T22:04:26.395Z,2.10
2022-12-09T22:06:59.818Z,2.10
2022-12-09T22:09:34.625Z,2.10
2022-12-09T22:12:08.385Z,2.10
2022-12-09T22:14:42.321Z,2.10
2022-12-09T22:17:15.692Z,2.10
2022-12-09T22:20:00.518Z,2.10
2022-12-09T22:22:42.461Z,2.10
2022-12-09T22:25:17.361Z,2.10
2022-12-09T22:27:50.753Z,2.10
2022-12-09T22:30:24.178Z,2.10
2022-12-09T22:32:57.651Z,2.20
2022-12-09T22:35:31.071Z,2.20
2022-12-09T22:38:10.982Z,2.10
2022-12-09T22:40:48.947Z,2.20
2022-12-09T22:43:22.261Z,2.20
2022-12-09T22:45:55.582Z,2.20
2022-12-09T22:48:29.063Z,2.20
2022-12-09T22:51:04.732Z,2.20
2022-12-09T22:53:38.398Z,2.20
2022-12-09T22:56:13.703Z,2.20
2022-12-09T22:58:47.580Z,2.20
2022-12-09T23:01:22.452Z,2.30
2022-12-09T23:03:56.813Z,2.30
2022-12-09T23:06:30.935Z,2.30
2022-12-09T23:09:04.784Z,2.30
2022-12-09T23:11:39.466Z,2.30
2022-12-09T23:14:13.254Z,2.30
2022-12-09T23:16:46.667Z,2.30
2022-12-09T23:19:20.274Z,2.30
2022-12-09T23:21:53.651Z,2.30
2022-12-09T23:24:27.038Z,2.30
2022-12-09T23:27:01.839Z,2.30
2022-12-09T23:29:35.226Z,2.30
2022-12-09T23:32:08.567Z,2.30
2022-12-09T23:34:42.380Z,2.30
2022-12-09T23:37:15.744Z,2.20
2022-12-09T23:39:49.996Z,2.20
2022-12-09T23:42:24.801Z,2.20
2022-12-09T23:44:58.694Z,2.20
2022-12-09T23:47:32.143Z,2.20
2022-12-09T23:50:06.341Z,2.20
2022-12-09T23:52:39.874Z,2.20
2022-12-09T23:55:13.586Z,2.20
2022-12-09T23:57:48.427Z,2.20
